createdAt,value
2022-08-02T00:00:34.979Z,2.20
2022-08-02T00:03:03.136Z,2.03
2022-08-02T00:05:32.687Z,2.97
2022-08-02T00:08:00.903Z,2.57
2022-08-02T00:10:29.178Z,2.90
2022-08-02T00:12:59.375Z,2.50
2022-08-02T00:15:27.821Z,2.90
2022-08-02T00:17:55.972Z,2.70
2022-08-02T00:20:24.153Z,2.80
2022-08-02T00:22:53.770Z,3.00
2022-08-02T00:25:22.122Z,2.53
2022-08-02T00:27:50.320Z,2.87
2022-08-02T00:30:18.423Z,2.80
2022-08-02T00:32:46.639Z,2.80
2022-08-02T00:35:14.788Z,2.87
2022-08-02T00:37:43.357Z,3.20
2022-08-02T00:40:13.479Z,2.43
2022-08-02T00:42:42.100Z,2.93
2022-08-02T00:45:10.927Z,2.90
2022-08-02T00:47:39.001Z,2.73
2022-08-02T00:50:08.173Z,2.83
2022-08-02T00:52:36.354Z,2.80
2022-08-02T00:55:05.075Z,2.67
2022-08-02T00:57:34.629Z,2.70
2022-08-02T01:00:02.789Z,2.73
2022-08-02T01:02:31.253Z,2.93
2022-08-02T01:04:59.438Z,2.60
2022-08-02T01:07:27.984Z,2.80
2022-08-02T01:09:56.121Z,3.17
2022-08-02T01:12:24.418Z,3.00
2022-08-02T01:14:57.871Z,3.13
2022-08-02T01:17:31.659Z,2.83
2022-08-02T01:20:07.095Z,2.87
2022-08-02T01:23:04.289Z,3.00
2022-08-02T01:25:51.304Z,3.47
2022-08-02T01:28:38.051Z,3.43
2022-08-02T01:31:12.080Z,3.33
2022-08-02T01:33:44.299Z,3.20
2022-08-02T01:36:14.880Z,2.67
2022-08-02T01:38:46.454Z,3.27
2022-08-02T01:41:19.653Z,3.20
2022-08-02T01:43:51.113Z,2.80
2022-08-02T01:46:20.284Z,3.50
2022-08-02T01:48:49.210Z,3.17
2022-08-02T01:51:19.978Z,3.20
2022-08-02T01:53:51.358Z,2.80
2022-08-02T01:56:20.536Z,3.50
2022-08-02T01:58:50.189Z,3.10
2022-08-02T02:01:20.055Z,3.27
2022-08-02T02:03:50.102Z,3.40
2022-08-02T02:06:19.735Z,3.40
2022-08-02T02:08:49.334Z,3.13
2022-08-02T02:12:14.112Z,3.10
2022-08-02T05:45:22.654Z,2.97
2022-08-02T05:47:50.945Z,3.67
2022-08-02T05:50:19.563Z,3.10
2022-08-02T05:52:56.314Z,3.80
2022-08-02T05:55:28.857Z,3.60
2022-08-02T05:58:04.567Z,3.60
2022-08-02T06:00:35.442Z,4.00
2022-08-02T06:03:20.480Z,3.90
2022-08-02T06:05:53.100Z,3.53
2022-08-02T06:08:22.805Z,3.87
2022-08-02T06:10:53.254Z,3.70
2022-08-02T06:13:21.787Z,3.40
2022-08-02T06:15:53.961Z,3.83
2022-08-02T06:18:27.861Z,3.30
2022-08-02T06:22:32.905Z,3.53
2022-08-02T06:23:57.910Z,3.17
2022-08-02T06:26:28.723Z,3.30
2022-08-02T06:28:58.910Z,3.67
2022-08-02T06:31:28.411Z,2.70
2022-08-02T06:33:56.582Z,3.37
2022-08-02T06:36:30.712Z,3.10
2022-08-02T06:39:04.965Z,2.83
2022-08-02T06:41:40.473Z,3.93
2022-08-02T06:44:45.061Z,3.00
2022-08-02T06:47:11.794Z,3.33
2022-08-02T06:49:51.446Z,2.47
2022-08-02T06:52:27.892Z,3.33
2022-08-02T06:54:57.274Z,2.77
2022-08-02T06:57:25.694Z,2.60
2022-08-02T06:59:54.034Z,2.70
2022-08-02T07:02:23.687Z,3.07
2022-08-02T07:04:51.912Z,2.80
2022-08-02T07:07:20.157Z,2.57
2022-08-02T07:09:56.603Z,3.17
2022-08-02T07:12:30.373Z,2.67
2022-08-02T07:14:59.382Z,2.60
2022-08-02T07:17:29.470Z,2.40
2022-08-02T07:19:58.148Z,2.33
2022-08-02T07:22:27.541Z,2.60
2022-08-02T07:24:56.786Z,2.60
2022-08-02T07:27:25.151Z,2.20
2022-08-02T07:29:53.480Z,2.43
2022-08-02T07:32:23.686Z,2.47
2022-08-02T07:34:55.371Z,2.47
2022-08-02T07:37:54.295Z,2.30
2022-08-02T07:40:19.791Z,2.20
2022-08-02T07:42:50.148Z,2.23
2022-08-02T07:45:18.548Z,1.80
2022-08-02T07:47:47.141Z,1.90
2022-08-02T07:50:18.572Z,2.20
2022-08-02T07:53:02.973Z,1.80
2022-08-02T07:55:39.885Z,1.73
2022-08-02T07:58:12.107Z,1.97
2022-08-02T08:00:43.264Z,1.60
2022-08-02T08:03:11.621Z,2.00
2022-08-02T08:05:41.279Z,1.90
2022-08-02T08:08:13.780Z,1.83
2022-08-02T08:10:45.195Z,1.60
2022-08-02T08:13:13.556Z,2.00
2022-08-02T08:15:41.793Z,1.80
2022-08-02T08:18:20.659Z,1.93
2022-08-02T08:20:50.392Z,1.90
2022-08-02T08:23:18.765Z,1.70
2022-08-02T08:25:47.016Z,1.70
2022-08-02T08:28:15.332Z,1.43
2022-08-02T08:30:43.582Z,1.63
2022-08-02T08:33:11.677Z,1.37
2022-08-02T08:35:40.287Z,1.90
2022-08-02T08:38:09.933Z,1.60
2022-08-02T08:40:38.804Z,1.80
2022-08-02T08:43:07.110Z,1.87
2022-08-02T08:45:35.369Z,1.93
2022-08-02T08:48:09.968Z,1.70
2022-08-02T08:50:42.991Z,1.50
2022-08-02T08:53:13.719Z,1.50
2022-08-02T08:55:42.613Z,1.67
2022-08-02T08:58:10.771Z,1.73
2022-08-02T09:00:39.060Z,1.80
2022-08-02T09:03:08.620Z,1.50
2022-08-02T09:05:37.983Z,1.70
2022-08-02T09:08:06.574Z,1.60
2022-08-02T09:10:41.585Z,1.50
2022-08-02T09:13:37.529Z,1.73
2022-08-02T09:16:11.302Z,1.40
2022-08-02T09:18:45.387Z,1.50
2022-08-02T09:21:15.869Z,1.70
2022-08-02T09:23:46.155Z,1.67
2022-08-02T09:26:17.474Z,1.50
2022-08-02T09:28:47.676Z,1.67
2022-08-02T09:31:18.483Z,1.50
2022-08-02T09:33:47.965Z,1.80
2022-08-02T09:36:18.009Z,1.77
2022-08-02T09:38:55.169Z,1.37
2022-08-02T09:41:27.837Z,1.37
2022-08-02T09:44:04.482Z,1.33
2022-08-02T09:46:37.441Z,1.53
2022-08-02T09:49:08.358Z,1.30
2022-08-02T09:51:38.274Z,1.20
2022-08-02T09:54:09.337Z,1.37
2022-08-02T09:56:45.384Z,1.20
2022-08-02T09:59:15.189Z,1.17
2022-08-02T10:01:50.720Z,1.33
2022-08-02T10:04:22.620Z,1.50
2022-08-02T10:06:53.582Z,1.40
2022-08-02T10:09:22.953Z,1.03
2022-08-02T10:11:52.774Z,1.30
2022-08-02T10:14:21.821Z,1.30
2022-08-02T10:16:50.207Z,1.77
2022-08-02T10:19:38.778Z,1.67
2022-08-02T10:22:11.891Z,1.57
2022-08-02T10:24:47.570Z,1.07
2022-08-02T10:27:20.086Z,1.33
2022-08-02T10:29:55.601Z,1.23
2022-08-02T10:32:28.914Z,1.23
2022-08-02T10:35:19.471Z,1.40
2022-08-02T10:37:54.183Z,1.30
2022-08-02T10:40:26.928Z,1.30
2022-08-02T10:43:00.583Z,1.40
2022-08-02T10:45:29.892Z,1.20
2022-08-02T10:48:03.623Z,1.30
2022-08-02T10:50:56.013Z,1.40
2022-08-02T10:53:34.390Z,1.40
2022-08-02T10:56:04.178Z,1.10
2022-08-02T10:58:35.077Z,1.73
2022-08-02T11:01:06.208Z,1.10
2022-08-02T11:03:39.713Z,1.37
2022-08-02T11:06:24.677Z,1.40
2022-08-02T11:09:32.844Z,1.20
2022-08-02T11:12:05.798Z,1.20
2022-08-02T11:14:38.107Z,1.50
2022-08-02T11:17:07.978Z,1.10
2022-08-02T11:19:36.441Z,1.30
2022-08-02T11:22:13.774Z,1.20
2022-08-02T11:24:44.115Z,1.10
2022-08-02T11:27:21.732Z,1.40
2022-08-02T11:29:51.963Z,1.13
2022-08-02T11:32:30.995Z,0.90
2022-08-02T11:35:00.498Z,0.90
2022-08-02T11:37:29.739Z,0.80
2022-08-02T11:39:58.229Z,1.10
2022-08-02T11:42:33.164Z,1.20
2022-08-02T11:45:02.724Z,1.37
2022-08-02T11:47:32.255Z,1.10
2022-08-02T11:50:06.489Z,1.40
2022-08-02T11:52:36.889Z,1.20
2022-08-02T11:55:07.292Z,1.00
2022-08-02T11:58:03.107Z,1.30
2022-08-02T12:00:30.789Z,1.03
2022-08-02T12:03:01.402Z,1.10
2022-08-02T12:06:04.867Z,1.10
2022-08-02T12:08:25.168Z,1.47
2022-08-02T12:10:53.784Z,1.50
2022-08-02T12:13:21.969Z,1.20
2022-08-02T12:15:51.923Z,0.93
2022-08-02T12:18:39.501Z,1.10
2022-08-02T12:21:22.483Z,1.10
2022-08-02T12:24:00.131Z,1.13
2022-08-02T12:26:30.143Z,1.20
2022-08-02T12:28:59.777Z,1.17
2022-08-02T12:31:55.675Z,1.10
2022-08-02T12:34:31.676Z,1.20
2022-08-02T12:37:07.130Z,1.50
2022-08-02T12:39:38.176Z,1.20
2022-08-02T12:42:07.337Z,1.10
2022-08-02T12:44:39.070Z,0.97
2022-08-02T12:47:14.550Z,1.10
2022-08-02T12:49:44.085Z,1.20
2022-08-02T12:52:23.212Z,1.10
2022-08-02T12:54:53.865Z,1.30
2022-08-02T12:57:23.549Z,1.00
2022-08-02T12:59:56.167Z,1.33
2022-08-02T13:02:33.510Z,1.23
2022-08-02T13:05:05.746Z,1.00
2022-08-02T13:07:36.501Z,1.40
2022-08-02T13:10:08.445Z,1.40
2022-08-02T13:12:40.176Z,1.30
2022-08-02T13:15:12.375Z,1.50
2022-08-02T13:18:01.926Z,1.70
2022-08-02T13:20:31.533Z,1.47
2022-08-02T13:23:04.036Z,1.07
2022-08-02T13:25:34.422Z,1.37
2022-08-02T13:28:07.571Z,1.20
2022-08-02T13:30:41.968Z,1.20
2022-08-02T13:33:13.948Z,1.53
2022-08-02T13:35:44.190Z,1.03
2022-08-02T13:38:13.270Z,1.50
2022-08-02T13:41:04.311Z,1.13
2022-08-02T13:43:54.773Z,1.17
2022-08-02T13:46:29.307Z,1.37
2022-08-02T13:48:59.545Z,1.20
2022-08-02T13:51:27.813Z,1.10
2022-08-02T13:53:55.932Z,1.47
2022-08-02T13:56:35.525Z,1.20
2022-08-02T13:59:55.131Z,1.30
2022-08-02T14:01:53.228Z,1.47
2022-08-02T14:04:22.894Z,1.60
2022-08-02T14:06:51.282Z,1.20
2022-08-02T14:09:19.593Z,1.40
2022-08-02T14:11:48.105Z,1.10
2022-08-02T14:14:17.460Z,1.20
2022-08-02T14:16:46.187Z,1.10
2022-08-02T14:19:16.762Z,1.20
2022-08-02T14:21:47.877Z,1.40
2022-08-02T14:24:16.676Z,1.30
2022-08-02T14:26:45.817Z,1.13
2022-08-02T14:29:14.454Z,1.40
2022-08-02T14:31:44.626Z,1.10
2022-08-02T14:34:13.989Z,1.33
2022-08-02T14:36:42.307Z,1.13
2022-08-02T14:39:12.351Z,1.20
2022-08-02T14:42:00.038Z,1.23
2022-08-02T14:44:29.176Z,0.97
2022-08-02T14:46:57.937Z,1.30
2022-08-02T14:49:27.011Z,1.10
2022-08-02T14:51:55.767Z,1.20
2022-08-02T14:54:30.520Z,1.13
2022-08-02T14:56:59.744Z,1.30
2022-08-02T14:59:27.882Z,1.40
2022-08-02T15:01:56.092Z,1.10
2022-08-02T15:04:24.549Z,1.17
2022-08-02T15:06:53.016Z,1.47
2022-08-02T15:09:21.819Z,1.23
2022-08-02T15:11:51.407Z,1.03
2022-08-02T15:14:25.837Z,1.20
2022-08-02T15:16:58.189Z,1.17
2022-08-02T15:19:35.424Z,1.40
2022-08-02T15:22:19.741Z,1.60
2022-08-02T15:24:48.336Z,1.20
2022-08-02T15:27:18.483Z,1.20
2022-08-02T15:29:48.014Z,1.43
2022-08-02T15:32:18.720Z,1.20
2022-08-02T15:34:47.757Z,1.37
2022-08-02T15:37:16.205Z,1.77
2022-08-02T15:39:49.689Z,1.30
2022-08-02T15:42:19.716Z,1.30
2022-08-02T15:44:59.692Z,1.40
2022-08-02T15:47:28.169Z,1.30
2022-08-02T15:50:01.818Z,1.40
2022-08-02T15:52:32.634Z,1.17
2022-08-02T15:55:13.447Z,1.33
2022-08-02T15:57:46.852Z,1.30
2022-08-02T16:00:19.215Z,1.10
2022-08-02T16:02:49.433Z,1.40
2022-08-02T16:05:18.563Z,1.67
2022-08-02T16:07:46.906Z,1.13
2022-08-02T16:10:15.882Z,1.40
2022-08-02T16:12:45.642Z,1.23
2022-08-02T16:15:14.144Z,1.33
2022-08-02T16:17:48.752Z,2.07
2022-08-02T16:20:22.482Z,2.97
2022-08-02T16:22:50.994Z,15.70
2022-08-02T16:25:19.264Z,5.13
2022-08-02T16:28:06.294Z,1.30
2022-08-02T16:30:36.201Z,1.40
2022-08-02T16:33:04.352Z,2.53
2022-08-02T16:35:35.127Z,1.67
2022-08-02T16:38:03.631Z,1.80
2022-08-02T16:40:34.314Z,1.33
2022-08-02T16:43:09.141Z,1.50
2022-08-02T16:45:38.003Z,1.10
2022-08-02T16:48:09.239Z,1.60
2022-08-02T16:50:37.795Z,1.33
2022-08-02T16:53:07.490Z,1.30
2022-08-02T16:55:36.684Z,1.47
2022-08-02T16:58:09.830Z,1.20
2022-08-02T17:00:39.159Z,1.27
2022-08-02T17:03:15.007Z,1.50
2022-08-02T17:05:56.018Z,1.53
2022-08-02T17:08:32.183Z,1.30
2022-08-02T17:11:03.282Z,1.67
2022-08-02T17:13:34.237Z,1.33
2022-08-02T17:16:26.035Z,1.50
2022-08-02T17:18:55.480Z,1.20
2022-08-02T17:21:23.872Z,1.40
2022-08-02T17:24:06.283Z,1.43
2022-08-02T17:26:36.705Z,1.10
2022-08-02T17:29:15.684Z,1.37
2022-08-02T17:34:35.444Z,1.20
2022-08-02T17:37:05.646Z,1.70
2022-08-02T17:39:44.066Z,1.33
2022-08-02T17:42:20.279Z,1.20
2022-08-02T17:44:54.333Z,1.33
2022-08-02T17:47:22.918Z,1.43
2022-08-02T17:49:59.967Z,1.30
2022-08-02T17:52:50.137Z,1.60
2022-08-02T17:55:17.318Z,1.60
2022-08-02T17:57:56.292Z,1.50
2022-08-02T18:00:33.750Z,1.33
2022-08-02T18:03:05.380Z,1.50
2022-08-02T18:05:39.153Z,1.87
2022-08-02T18:08:10.218Z,1.50
2022-08-02T18:10:42.328Z,1.27
2022-08-02T18:13:12.463Z,1.40
2022-08-02T18:15:45.547Z,1.20
2022-08-02T18:18:14.366Z,1.30
2022-08-02T18:20:43.113Z,1.50
2022-08-02T18:23:13.517Z,1.20
2022-08-02T18:25:46.078Z,1.63
2022-08-02T18:28:16.354Z,1.60
2022-08-02T18:30:46.009Z,1.40
2022-08-02T18:33:57.832Z,1.47
2022-08-02T18:36:02.388Z,1.50
2022-08-02T18:38:31.473Z,1.60
2022-08-02T18:41:02.640Z,1.17
2022-08-02T18:43:34.603Z,1.47
2022-08-02T18:46:15.778Z,1.30
2022-08-02T18:48:46.585Z,1.30
2022-08-02T18:54:07.833Z,1.40
2022-08-02T18:56:39.037Z,1.30
2022-08-02T18:59:08.344Z,1.50
2022-08-02T19:01:50.746Z,1.47
2022-08-02T19:04:31.356Z,1.50
2022-08-02T19:07:07.380Z,1.63
2022-08-02T19:09:39.819Z,2.30
2022-08-02T19:12:11.559Z,2.10
2022-08-02T19:14:40.367Z,2.00
2022-08-02T19:17:15.998Z,1.87
2022-08-02T19:19:59.984Z,1.90
2022-08-02T19:22:29.920Z,2.00
2022-08-02T19:25:01.063Z,1.90
2022-08-02T19:27:32.932Z,2.20
2022-08-02T19:30:03.184Z,2.33
2022-08-02T19:32:39.896Z,2.20
2022-08-02T19:35:19.168Z,2.30
2022-08-02T19:38:08.726Z,1.90
2022-08-02T19:40:37.770Z,2.60
2022-08-02T19:44:23.831Z,2.73
2022-08-02T19:48:46.053Z,1.90
2022-08-02T19:51:16.547Z,2.00
2022-08-02T19:54:04.684Z,2.17
2022-08-02T19:56:32.974Z,1.80
2022-08-02T19:59:13.008Z,2.43
2022-08-02T20:01:46.375Z,2.03
2022-08-02T20:07:07.657Z,2.00
2022-08-02T20:09:46.791Z,2.00
2022-08-02T20:12:16.228Z,1.90
2022-08-02T20:14:51.079Z,2.17
2022-08-02T20:17:21.095Z,2.03
2022-08-02T20:19:51.268Z,2.33
2022-08-02T20:22:20.746Z,2.33
2022-08-02T20:24:49.203Z,2.20
2022-08-02T20:27:21.159Z,1.90
2022-08-02T20:29:53.158Z,2.20
2022-08-02T20:32:24.080Z,1.83
2022-08-02T20:34:53.749Z,2.40
2022-08-02T20:38:01.317Z,2.03
2022-08-02T20:40:17.067Z,2.10
2022-08-02T20:42:47.829Z,1.87
2022-08-02T20:45:16.475Z,2.43
2022-08-02T20:47:45.815Z,2.10
2022-08-02T20:50:37.331Z,1.90
2022-08-02T20:53:06.081Z,1.90
2022-08-02T20:55:35.832Z,2.10
2022-08-02T20:58:05.676Z,2.10
2022-08-02T21:00:34.362Z,2.10
2022-08-02T21:05:55.850Z,2.10
2022-08-02T21:08:41.542Z,2.00
2022-08-02T21:11:14.603Z,1.70
2022-08-02T21:13:46.651Z,1.93
2022-08-02T21:16:32.217Z,2.17
2022-08-02T21:19:02.129Z,2.47
2022-08-02T21:21:31.978Z,2.13
2022-08-02T21:24:01.641Z,2.20
2022-08-02T21:26:31.247Z,2.17
2022-08-02T21:29:03.525Z,2.20
2022-08-02T21:31:35.751Z,1.90
2022-08-02T21:34:11.390Z,1.80
2022-08-02T21:36:52.350Z,2.17
2022-08-02T21:39:20.822Z,2.17
2022-08-02T21:41:49.296Z,2.10
2022-08-02T21:44:18.220Z,2.20
2022-08-02T21:46:49.457Z,2.00
2022-08-02T21:49:27.084Z,1.90
2022-08-02T21:52:10.628Z,1.93
2022-08-02T21:54:39.781Z,2.37
2022-08-02T21:57:11.228Z,2.50
2022-08-02T21:59:46.362Z,2.13
2022-08-02T22:02:15.360Z,2.20
2022-08-02T22:04:47.476Z,2.63
2022-08-02T22:10:09.034Z,2.57
2022-08-02T22:12:37.401Z,2.40
2022-08-02T22:15:10.434Z,2.50
2022-08-02T22:17:50.939Z,2.57
2022-08-02T22:20:22.225Z,2.67
2022-08-02T22:22:52.473Z,2.13
2022-08-02T22:25:40.072Z,2.23
2022-08-02T22:28:38.191Z,2.23
2022-08-02T22:31:04.360Z,2.30
2022-08-02T22:34:00.697Z,2.40
2022-08-02T22:36:31.653Z,2.50
2022-08-02T22:39:02.088Z,2.57
2022-08-02T22:42:01.726Z,2.43
2022-08-02T22:44:20.138Z,2.70
2022-08-02T22:46:50.182Z,2.60
2022-08-02T22:49:38.738Z,2.33
2022-08-02T22:52:07.886Z,2.70
2022-08-02T22:54:37.907Z,2.40
2022-08-02T22:57:06.935Z,2.67
2022-08-02T22:58:38.930Z,1.87
2022-08-02T22:58:45.838Z,1.40
2022-08-02T22:58:53.029Z,1.97
2022-08-02T22:58:54.319Z,1.97
2022-08-02T22:59:07.335Z,1.87
2022-08-02T22:59:40.626Z,2.47
2022-08-02T23:02:09.934Z,2.50
2022-08-02T23:04:38.777Z,2.50
2022-08-02T23:07:07.067Z,2.57
2022-08-02T23:09:35.346Z,2.40
2022-08-02T23:12:06.009Z,2.40
2022-08-02T23:14:34.200Z,2.63
2022-08-02T23:17:19.562Z,2.70
2022-08-02T23:19:53.576Z,2.70
2022-08-02T23:22:29.276Z,2.70
2022-08-02T23:25:00.724Z,2.40
2022-08-02T23:27:30.604Z,2.67
2022-08-02T23:29:59.152Z,2.60
2022-08-02T23:32:27.782Z,2.43
2022-08-02T23:34:56.851Z,3.27
2022-08-02T23:37:25.269Z,2.53
2022-08-02T23:39:53.520Z,2.57
2022-08-02T23:42:23.283Z,2.33
2022-08-02T23:44:52.931Z,3.00
2022-08-02T23:47:21.578Z,3.10
2022-08-02T23:49:49.802Z,2.87
2022-08-02T23:52:19.392Z,2.93
2022-08-02T23:54:47.622Z,2.90
2022-08-02T23:57:20.805Z,2.90
2022-08-02T23:59:52.525Z,3.27
